Weather observations for the past three days for
Newton, Newton City/County Airport
Metric (Imperial)
Date Time (cdt) Wind (kph) Vis. (km) Weather Sky Cond. Temperature (ºC) Relative Humidity Wind Chill (°C) Heat Index (°C) Pressure Precipitation (cm)
Air Dwpt 6 hour altimeter (cm) sea level (mb) 1 hr 3 hr 6 hr
Max. Min.
05 11:56 S 22 G 28 16.09 Fair CLR 36.7 19.4 36% 39 76.17 1013.4
05 10:56 SW 13 G 26 16.09 Fair CLR 34.4 19.4 41% 36 76.17 1013.4
05 09:56 S 22 16.09 Fair CLR 32.8 20 47% 35 76.15 1013.2
05 08:56 S 13 16.09 Fair CLR 28.9 20.6 61% 31 76.15 1013.2
05 07:56 S 11 16.09 Fair CLR 26.1 20 69% 27 76.1 1012.4
05 06:56 S 13 16.09 Fair CLR 25.6 19.4 27.8 24.4 69% 27 76.07 1012.1
05 05:56 S 15 16.09 Fair CLR 26.7 19.4 64% 28 76.07 1012.0
05 04:56 S 15 16.09 Fair CLR 27.2 19.4 62% 29 76.07 1012.1
05 03:56 S 15 16.09 Fair CLR 25.6 19.4 69% 27 76.1 1012.3
05 02:56 SE 9 16.09 Fair CLR 25 20 74% 26 76.1 1012.6
05 01:56 SE 13 16.09 Fair CLR 26 0 0% 76.07 1011.9
04 23:56 S 19 16.09 Fair CLR 27.8 20 63% 29 76.05 1011.9
04 22:56 SE 15 16.09 Fair CLR 28.3 20 61% 30 76.07 1012.1
04 21:56 SE 11 16.09 Fair CLR 27.8 20 63% 29 76.07 1012.3
04 20:56 SE 9 16.09 Fair CLR 28.9 19.4 57% 30 76 1011.2
04 19:56 S 11 16.09 Fair CLR 31.7 20 50% 34 75.97 1010.9
04 18:56 S 19 16.09 Fair CLR 34.4 19.4 37.2 34.4 41% 36 75.95 1010.6
04 17:56 S 20 16.09 Fair CLR 35.6 20 40% 38 75.95 1010.5
04 16:56 S 22 16.09 Fair CLR 36.7 20.6 39% 40 75.95 1010.2
04 15:56 S 19 G 30 16.09 Fair CLR 36.7 20.6 39% 40 75.97 1010.6
04 14:56 S 19 G 31 16.09 Fair CLR 36.1 20.6 40% 39 76 1011.1
04 13:56 S 19 G 30 16.09 Fair CLR 35.6 20.6 41% 39 76.02 1011.5
04 12:56 S 24 16.09 Fair CLR 34.4 21.1 35 23.3 46% 38 76.07 1011.9
04 11:56 Calm 16.09 Fair CLR 32.8 21.1 50% 36 76.1 1012.6
04 10:56 S 26 16.09 Fair CLR 31.7 21.1 53% 35 76.1 1012.5
04 09:56 S 26 16.09 Fair CLR 29.4 21.7 63% 32 76.1 1012.6
04 08:56 S 22 16.09 Fair CLR 26.1 21.7 77% 28 76.12 1012.9
04 07:56 S 15 16.09 Fair CLR 23.9 21.1 84% 24 76.1 1012.5
04 06:56 S 17 16.09 Fair CLR 23.9 21.1 27.2 23.9 84% 24 76.05 1011.8
04 05:56 S 20 16.09 Fair CLR 25 21.1 79% 26 76.02 1011.5
04 04:56 S 17 16.09 Fair CLR 25 20.6 77% 26 76.02 1011.4
04 03:56 S 19 16.09 Fair CLR 25.6 20.6 74% 27 76.02 1011.2
04 02:56 S 20 16.09 Fair CLR 26.1 20.6 72% 28 76.02 1011.2
04 01:56 S 20 16.09 Fair CLR 26.7 20.6 69% 28 76.02 1011.2
04 00:56 S 19 16.09 Fair CLR 27.2 20.6 34.4 27.2 67% 29 76.02 1011.4
03 23:56 S 19 16.09 Fair CLR 28.3 20.6 63% 30 76 1011.0
03 22:56 S 22 G 35 16.09 Fair CLR 29.4 20.6 59% 32 76 1011.0
03 21:56 S 26 16.09 Fair CLR 30.6 20 53% 33 75.95 1010.3
03 20:56 S 20 16.09 Fair CLR 31.1 18.3 46% 32 75.9 1009.6
03 19:56 S 22 16.09 Fair CLR 32.8 17.8 41% 34 75.82 1008.8
03 18:56 S 22 G 33 16.09 Fair CLR 34.4 18.3 37.8 34.4 38% 36 75.82 1008.6
03 17:56 S 28 G 39 16.09 Fair CLR 36.1 17.2 33% 37 75.79 1008.2
03 16:56 S 31 16.09 Fair CLR 37.2 18.3 33% 39 75.79 1008.1
03 15:56 S 22 G 37 16.09 Fair CLR 37.2 18.3 33% 39 75.84 1008.7
03 14:56 S 20 16.09 Fair CLR 37.2 19.4 35% 40 75.87 1009.3
03 13:56 S 30 G 52 16.09 Fair CLR 35.6 19.4 39% 38 75.9 1009.7
03 12:56 S 22 G 41 16.09 Fair CLR 35 20.6 35 25.6 43% 38 76 1010.9
03 11:56 S 28 G 41 16.09 Fair CLR 33.3 20.6 47% 36 76.05 1011.7
03 10:56 S 33 G 43 16.09 Fair and Breezy CLR 31.7 20.6 52% 34 76.05 1011.7
03 09:56 S 30 G 41 16.09 Fair CLR 30 20.6 57% 32 76.05 1011.8
03 08:56 S 28 G 43 16.09 Partly Cloudy SCT110 28.3 20 61% 30 76.05 1011.9
03 07:56 S 19 16.09 Mostly Cloudy BKN110 26.7 20 67% 28 76.07 1012.1
03 06:56 S 20 16.09 Fair CLR 25.6 19.4 28.3 25.6 69% 27 76.05 1011.6
03 05:56 S 22 16.09 Fair CLR 26.7 18.9 62% 28 76.02 1011.5
03 04:56 S 28 16.09 Fair CLR 27.2 18.9 61% 28 76.02 1011.4
03 03:56 S 22 16.09 Fair CLR 27.8 17.8 55% 29 76.02 1011.3
03 02:56 S 17 16.09 Fair CLR 26.7 17.2 56% 27 76 1011.1
03 01:56 S 15 16.09 Fair CLR 27.2 17.2 54% 28 76 1011.1
03 00:56 S 20 16.09 Fair CLR 28.3 17.2 35 28.3 51% 29 76 1011.0
02 23:56 S 20 16.09 Fair CLR 28.9 17.2 49% 29 76 1011.0
02 22:56 SE 17 16.09 Fair CLR 28.3 17.2 51% 29 76 1011.1
02 21:56 SE 17 16.09 Fair CLR 30 17.2 46% 30 76 1011.1
02 20:56 S 15 16.09 Fair CLR 31.1 16.7 42% 31 75.95 1010.5
02 19:56 S 19 16.09 Fair CLR 32.8 16.7 38% 33 75.92 1010.1
02 18:56 S 24 16.09 Fair CLR 35 16.1 38.3 35 32% 35 75.92 1009.9
02 17:56 S 24 16.09 Fair CLR 36.7 16.1 29% 37 75.92 1009.9
02 16:56 S 28 G 37 16.09 A Few Clouds FEW085 36.7 16.1 29% 37 75.95 1010.1
02 15:56 S 30 G 37 16.09 A Few Clouds FEW085 37.8 16.7 29% 39 75.97 1010.8
02 14:56 S 24 G 44 16.09 Partly Cloudy SCT085 37.2 16.1 29% 38 76.05 1011.6
02 13:56 S 31 G 39 16.09 Fair CLR 37.8 17.2 30% 39 76.1 1012.2
02 12:56 S 35 G 43 16.09 Fair and Breezy CLR 36.7 17.2 36.7 25 32% 38 76.15 1013.1 0.03 0.03
Date Time (cdt) Wind (kph) Vis. (km) Weather Sky Cond. Air Dwpt Max. Min. Relative Humidity Wind Chill (°C) Heat Index (°C) altimeter (cm) sea level (mb) 1 hr 3 hr 6 hr
6 hour
Temperature (ºC) Pressure Precipitation (cm)